Time;durP1;ratioP1;P1;durP2;ratioP2;P2;SDS_P1;SDS_P2;PMS_P1;PMS_P2;Temp;Humidity;BMP_temperature;BMP_pressure;BME280_temperature;BME280_humidity;BME280_pressure;Samples;Min_cycle;Max_cycle;Signal;HPM_P1;HPM_P2
2023/06/05 00:01:55;;;;;;;1.50;1.00;;;16.50;79.40;;;;;;5042629;28;20475;-80
2023/06/05 00:04:23;;;;;;;1.50;1.00;;;16.50;80.20;;;;;;5057923;28;20466;-84
2023/06/05 00:06:50;;;;;;;1.47;1.00;;;16.50;80.40;;;;;;5045714;28;20532;-80
2023/06/05 00:09:17;;;;;;;1.40;0.93;;;16.50;80.30;;;;;;5053694;28;20520;-80
2023/06/05 00:11:44;;;;;;;1.40;0.90;;;16.40;81.20;;;;;;5043734;28;20493;-83
2023/06/05 00:14:12;;;;;;;1.50;1.00;;;16.40;81.20;;;;;;5053715;28;20546;-80
2023/06/05 00:16:39;;;;;;;1.43;1.00;;;16.40;81.60;;;;;;5043530;28;20565;-77
2023/06/05 00:19:06;;;;;;;1.40;0.90;;;16.40;81.60;;;;;;5058734;28;21008;-80
2023/06/05 00:21:33;;;;;;;1.50;0.90;;;16.40;81.10;;;;;;5044883;28;20952;-80
2023/06/05 00:24:00;;;;;;;1.40;0.90;;;16.40;82.10;;;;;;5057478;28;20854;-79
2023/06/05 00:26:27;;;;;;;1.40;0.90;;;16.30;83.00;;;;;;5042342;28;21051;-79
2023/06/05 00:28:53;;;;;;;1.43;1.00;;;16.30;83.20;;;;;;5057155;28;20555;-80
2023/06/05 00:31:22;;;;;;;1.50;1.00;;;16.20;83.80;;;;;;5047628;28;20856;-83
2023/06/05 00:33:50;;;;;;;1.43;1.00;;;16.20;83.80;;;;;;5058331;28;20508;-77
2023/06/05 00:36:18;;;;;;;1.40;0.90;;;16.20;84.00;;;;;;5047070;28;20469;-80
2023/06/05 00:38:45;;;;;;;1.43;0.90;;;16.20;84.50;;;;;;5065767;28;20880;-82
2023/06/05 00:41:12;;;;;;;1.43;0.97;;;16.20;84.60;;;;;;5043164;28;20486;-81
2023/06/05 00:43:39;;;;;;;1.40;0.90;;;16.20;85.50;;;;;;5054937;28;20462;-77
2023/06/05 00:46:06;;;;;;;1.43;0.90;;;16.10;85.50;;;;;;5040997;28;20980;-81
2023/06/05 00:48:35;;;;;;;1.43;0.90;;;16.10;86.00;;;;;;5055206;28;20486;-81
2023/06/05 00:51:02;;;;;;;1.40;0.90;;;16.10;86.10;;;;;;5043116;28;20830;-80
2023/06/05 00:53:31;;;;;;;1.47;1.00;;;16.00;86.80;;;;;;5054371;28;20462;-79
2023/06/05 00:55:58;;;;;;;1.50;1.00;;;16.00;86.80;;;;;;5043391;28;20833;-79
2023/06/05 00:58:26;;;;;;;1.50;0.90;;;16.00;87.80;;;;;;5055399;28;20470;-79
2023/06/05 01:00:53;;;;;;;1.47;1.00;;;16.00;87.90;;;;;;5043327;28;20453;-81
2023/06/05 01:03:22;;;;;;;1.40;0.93;;;16.00;88.50;;;;;;5055786;28;20469;-80
2023/06/05 01:05:51;;;;;;;1.40;0.90;;;15.90;88.10;;;;;;5041681;28;20633;-80
2023/06/05 01:08:24;;;;;;;1.43;0.90;;;15.90;88.60;;;;;;5051439;28;20475;-78
2023/06/05 01:10:53;;;;;;;1.47;1.00;;;15.90;89.60;;;;;;5040118;28;20548;-83
2023/06/05 01:13:30;;;;;;;1.47;1.00;;;15.80;89.70;;;;;;5052493;28;20469;-80
2023/06/05 01:15:57;;;;;;;1.50;0.93;;;15.80;90.00;;;;;;5041216;28;20460;-78
2023/06/05 01:18:24;;;;;;;1.47;1.00;;;15.80;90.30;;;;;;5054851;28;20486;-81
2023/06/05 01:20:56;;;;;;;1.43;1.00;;;15.80;89.80;;;;;;5043416;28;20462;-79
2023/06/05 01:23:25;;;;;;;1.40;1.00;;;15.80;90.60;;;;;;5040687;28;20485;-80
2023/06/05 01:25:53;;;;;;;1.50;1.00;;;15.70;90.60;;;;;;5040086;28;20451;-81
2023/06/05 01:28:23;;;;;;;1.47;1.00;;;15.70;91.10;;;;;;5053842;28;20485;-79
2023/06/05 01:30:53;;;;;;;1.50;0.90;;;15.70;91.00;;;;;;5041327;28;20490;-79
2023/06/05 01:33:26;;;;;;;1.47;1.00;;;15.60;90.70;;;;;;5051577;28;21043;-79
2023/06/05 01:35:55;;;;;;;1.50;0.90;;;15.60;90.90;;;;;;5041333;28;20477;-82
2023/06/05 01:38:24;;;;;;;1.43;1.00;;;15.60;91.00;;;;;;5045678;28;20544;-79
2023/06/05 01:40:52;;;;;;;1.40;1.00;;;15.60;90.60;;;;;;5042417;28;20491;-79
2023/06/05 01:43:19;;;;;;;1.50;1.00;;;15.60;90.90;;;;;;5056521;28;20459;-80
2023/06/05 01:45:47;;;;;;;1.47;1.00;;;15.60;91.50;;;;;;5045956;28;20466;-78
2023/06/05 01:48:15;;;;;;;1.43;1.00;;;15.50;91.70;;;;;;5054081;28;20487;-83
2023/06/05 01:50:42;;;;;;;1.43;1.00;;;15.50;92.00;;;;;;5047911;28;20993;-82
2023/06/05 01:53:11;;;;;;;1.50;1.00;;;15.40;91.70;;;;;;5045524;28;20581;-82
2023/06/05 01:55:40;;;;;;;1.50;1.00;;;15.40;92.90;;;;;;5050842;28;20535;-81
2023/06/05 01:58:07;;;;;;;1.40;1.00;;;15.30;93.30;;;;;;5055742;28;20694;-80
2023/06/05 02:00:35;;;;;;;1.50;1.00;;;15.30;93.10;;;;;;5052279;28;20462;-80
2023/06/05 02:03:02;;;;;;;1.50;0.90;;;15.30;93.20;;;;;;5045222;28;20485;-81
2023/06/05 02:05:29;;;;;;;1.43;0.90;;;15.20;93.50;;;;;;5052580;28;20458;-78
2023/06/05 02:07:58;;;;;;;1.47;1.00;;;15.20;94.10;;;;;;5042659;28;20652;-79
2023/06/05 02:10:25;;;;;;;1.50;1.07;;;15.20;93.20;;;;;;5049568;28;20481;-79
2023/06/05 02:12:53;;;;;;;1.50;1.00;;;15.10;94.00;;;;;;5046246;28;20478;-81
2023/06/05 02:15:20;;;;;;;1.50;1.00;;;15.10;93.90;;;;;;5052733;28;20660;-80
2023/06/05 02:17:50;;;;;;;1.50;1.00;;;15.00;94.40;;;;;;5043079;28;20692;-82
2023/06/05 02:20:17;;;;;;;1.47;1.00;;;15.00;94.10;;;;;;5050157;28;20468;-82
2023/06/05 02:22:45;;;;;;;1.43;1.00;;;15.00;93.70;;;;;;5044417;28;20474;-81
2023/06/05 02:25:12;;;;;;;1.50;1.10;;;14.90;94.70;;;;;;5052774;28;20454;-81
2023/06/05 02:27:39;;;;;;;1.50;1.00;;;14.90;94.70;;;;;;5038396;28;20478;-76
2023/06/05 02:30:09;;;;;;;1.50;1.00;;;14.80;95.90;;;;;;5050619;28;20473;-80
2023/06/05 02:32:36;;;;;;;1.47;1.00;;;14.80;96.60;;;;;;5044977;28;20482;-77
2023/06/05 02:35:04;;;;;;;1.47;1.00;;;14.70;96.50;;;;;;5053021;28;20464;-78
2023/06/05 02:37:36;;;;;;;1.43;0.90;;;14.70;97.20;;;;;;5045266;28;20479;-80
2023/06/05 02:40:05;;;;;;;1.47;1.00;;;14.70;97.00;;;;;;5051588;28;20514;-82
2023/06/05 02:42:31;;;;;;;1.43;1.00;;;14.70;97.10;;;;;;5056514;28;20546;-81
2023/06/05 02:44:58;;;;;;;1.50;1.00;;;14.60;97.40;;;;;;5050115;28;20526;-81
2023/06/05 02:47:26;;;;;;;1.50;1.10;;;14.60;97.60;;;;;;5044960;28;20525;-80
2023/06/05 02:49:53;;;;;;;1.47;1.00;;;14.60;98.10;;;;;;5052939;28;20490;-82
2023/06/05 02:52:20;;;;;;;1.43;1.00;;;14.50;98.20;;;;;;5057855;28;20481;-77
2023/06/05 02:54:47;;;;;;;1.40;0.90;;;14.50;98.20;;;;;;5053829;28;20458;-78
2023/06/05 02:57:15;;;;;;;1.40;1.00;;;14.50;98.20;;;;;;5047976;28;20584;-83
2023/06/05 02:59:42;;;;;;;1.50;1.00;;;14.50;98.20;;;;;;5055541;28;20493;-79
2023/06/05 03:02:09;;;;;;;1.47;0.90;;;14.50;98.20;;;;;;5046551;28;20488;-80
2023/06/05 03:04:40;;;;;;;1.47;1.00;;;14.50;98.20;;;;;;5055181;28;20742;-80
2023/06/05 03:07:09;;;;;;;1.47;1.00;;;14.40;98.20;;;;;;5043632;28;20655;-79
2023/06/05 03:09:36;;;;;;;1.50;1.00;;;14.40;98.20;;;;;;5056665;28;20516;-82
2023/06/05 03:12:03;;;;;;;1.47;1.00;;;14.40;98.20;;;;;;5048225;28;20487;-82
2023/06/05 03:14:30;;;;;;;1.43;1.00;;;14.40;98.20;;;;;;5052418;28;20477;-81
2023/06/05 03:16:58;;;;;;;1.43;0.90;;;14.40;98.20;;;;;;5048125;28;20558;-84
2023/06/05 03:19:25;;;;;;;1.47;1.00;;;14.30;98.20;;;;;;5056954;28;20529;-83
2023/06/05 03:21:53;;;;;;;1.50;1.00;;;14.30;98.20;;;;;;5046997;28;20478;-80
2023/06/05 03:24:23;;;;;;;1.50;1.00;;;14.30;98.20;;;;;;5055352;28;20979;-85
2023/06/05 03:26:50;;;;;;;1.43;1.00;;;14.20;98.20;;;;;;5044914;28;20751;-80
2023/06/05 03:29:16;;;;;;;1.40;1.00;;;14.20;98.20;;;;;;5057056;28;21006;-80
2023/06/05 03:31:43;;;;;;;1.43;1.00;;;14.20;98.20;;;;;;5046545;28;21278;-86
2023/06/05 03:34:10;;;;;;;1.50;1.03;;;14.20;98.20;;;;;;5057685;28;20907;-83
2023/06/05 03:36:39;;;;;;;1.47;1.00;;;14.10;98.20;;;;;;5042531;28;20490;-83
2023/06/05 03:39:08;;;;;;;1.47;1.00;;;14.10;98.20;;;;;;5048971;28;20899;-83
2023/06/05 03:41:35;;;;;;;1.50;1.00;;;14.10;98.20;;;;;;5039187;28;20733;-83
2023/06/05 03:44:03;;;;;;;1.43;1.00;;;14.10;98.20;;;;;;5050996;28;20462;-81
2023/06/05 03:46:30;;;;;;;1.47;0.90;;;14.10;98.20;;;;;;5043969;28;20922;-82
2023/06/05 03:49:00;;;;;;;1.50;1.00;;;14.00;98.20;;;;;;5054967;28;20474;-80
2023/06/05 03:51:29;;;;;;;1.43;1.00;;;14.00;98.20;;;;;;5042249;28;20556;-77
2023/06/05 03:53:57;;;;;;;1.50;1.00;;;14.00;98.20;;;;;;5053751;28;20856;-81
2023/06/05 03:56:28;;;;;;;1.50;1.00;;;14.00;98.20;;;;;;5038880;28;20823;-81
2023/06/05 03:58:55;;;;;;;1.50;1.00;;;14.00;98.20;;;;;;5050304;28;20533;-80
2023/06/05 04:01:22;;;;;;;1.43;1.00;;;14.00;98.20;;;;;;5035554;28;20856;-81
2023/06/05 04:03:49;;;;;;;1.47;1.00;;;14.00;98.20;;;;;;5050662;28;20462;-81
2023/06/05 04:06:16;;;;;;;1.47;1.00;;;14.00;98.20;;;;;;5043931;28;20560;-80
2023/06/05 04:08:42;;;;;;;1.43;0.97;;;14.00;98.20;;;;;;5059223;28;20490;-81
2023/06/05 04:11:09;;;;;;;1.43;1.00;;;14.00;98.20;;;;;;5038301;28;20489;-77
2023/06/05 04:13:37;;;;;;;1.50;1.10;;;14.00;98.20;;;;;;5055774;28;20460;-80
2023/06/05 04:16:05;;;;;;;1.40;1.00;;;14.00;98.20;;;;;;5037624;28;20473;-81
2023/06/05 04:18:31;;;;;;;1.43;1.00;;;14.10;98.20;;;;;;5055921;28;20490;-82
2023/06/05 04:20:58;;;;;;;1.47;0.90;;;14.10;98.20;;;;;;5040199;28;20462;-81
2023/06/05 04:23:25;;;;;;;1.47;1.00;;;14.10;98.20;;;;;;5055873;28;20465;-80
2023/06/05 04:25:53;;;;;;;1.47;1.00;;;14.10;98.20;;;;;;5041506;28;20844;-80
2023/06/05 04:28:20;;;;;;;1.47;1.00;;;14.10;98.20;;;;;;5051659;28;20903;-79
2023/06/05 04:30:49;;;;;;;1.40;1.00;;;14.10;98.20;;;;;;5048568;28;20458;-79
2023/06/05 04:33:16;;;;;;;1.50;1.00;;;14.10;98.20;;;;;;5060423;28;20490;-80
2023/06/05 04:35:43;;;;;;;1.47;1.00;;;14.20;98.20;;;;;;5051082;28;20454;-82
2023/06/05 04:38:09;;;;;;;1.47;1.00;;;14.20;98.20;;;;;;5047950;28;20549;-80
2023/06/05 04:40:36;;;;;;;1.50;1.00;;;14.30;98.20;;;;;;5050259;28;20462;-80
2023/06/05 04:43:03;;;;;;;1.47;1.00;;;14.30;98.20;;;;;;5046873;28;21046;-82
2023/06/05 04:45:30;;;;;;;1.50;1.00;;;14.40;98.20;;;;;;5049807;28;20469;-80
2023/06/05 04:47:58;;;;;;;1.43;1.00;;;14.50;98.20;;;;;;5046340;28;20478;-81
2023/06/05 04:50:26;;;;;;;1.47;1.00;;;14.60;98.20;;;;;;5050748;28;20459;-80
2023/06/05 04:52:53;;;;;;;1.50;1.00;;;14.70;98.20;;;;;;5049057;28;20474;-79
2023/06/05 04:55:20;;;;;;;1.47;1.00;;;14.90;98.20;;;;;;5045197;28;20460;-80
2023/06/05 04:57:48;;;;;;;1.50;0.97;;;15.00;98.20;;;;;;5037598;28;20909;-81
2023/06/05 05:00:15;;;;;;;1.43;1.00;;;15.10;98.20;;;;;;5051019;28;20470;-82
2023/06/05 05:02:42;;;;;;;1.47;0.90;;;15.30;98.20;;;;;;5045681;28;20554;-81
2023/06/05 05:05:13;;;;;;;1.43;1.00;;;15.40;98.20;;;;;;5051842;28;20458;-81
2023/06/05 05:07:41;;;;;;;1.50;0.90;;;15.50;98.20;;;;;;5045654;28;20533;-81
2023/06/05 05:10:09;;;;;;;1.50;1.00;;;15.60;98.20;;;;;;5048865;28;20458;-80
2023/06/05 05:12:36;;;;;;;1.50;1.00;;;15.70;98.20;;;;;;5043507;28;20478;-82
2023/06/05 05:15:04;;;;;;;1.40;1.00;;;15.80;98.20;;;;;;5051370;28;20812;-81
2023/06/05 05:17:31;;;;;;;1.50;1.00;;;15.90;98.20;;;;;;5045115;28;20477;-80
2023/06/05 05:19:58;;;;;;;1.43;0.97;;;16.10;98.20;;;;;;5051313;28;20485;-81
2023/06/05 05:22:27;;;;;;;1.47;1.00;;;16.20;97.30;;;;;;5045719;28;20545;-81
2023/06/05 05:24:53;;;;;;;1.50;1.00;;;16.20;96.70;;;;;;5051277;28;20472;-80
2023/06/05 05:27:20;;;;;;;1.50;1.00;;;16.30;97.00;;;;;;5045922;28;20489;-81
2023/06/05 05:29:47;;;;;;;1.47;0.90;;;16.40;97.50;;;;;;5050826;28;20501;-81
2023/06/05 05:32:14;;;;;;;1.43;0.90;;;16.50;96.00;;;;;;5045026;28;20481;-81
2023/06/05 05:34:41;;;;;;;1.50;1.00;;;16.60;96.20;;;;;;5050737;28;20482;-80
2023/06/05 05:37:08;;;;;;;1.47;1.00;;;16.60;96.00;;;;;;5044312;28;20889;-78
2023/06/05 05:39:36;;;;;;;1.40;0.90;;;16.60;95.40;;;;;;5052122;28;20513;-82
2023/06/05 05:42:02;;;;;;;1.50;0.90;;;16.70;95.60;;;;;;5028744;28;20803;-82
2023/06/05 05:44:29;;;;;;;1.50;1.00;;;16.80;95.60;;;;;;5038650;28;20886;-81
2023/06/05 05:46:56;;;;;;;1.40;0.90;;;17.00;95.40;;;;;;5030999;28;20485;-79
2023/06/05 05:49:23;;;;;;;1.50;1.00;;;17.20;94.40;;;;;;5035822;28;20517;-78
2023/06/05 05:51:51;;;;;;;1.60;1.30;;;17.30;94.50;;;;;;5025550;28;21084;-80
2023/06/05 05:54:17;;;;;;;1.50;1.00;;;17.40;94.30;;;;;;5031727;28;20459;-77
2023/06/05 05:56:47;;;;;;;1.50;1.00;;;17.50;93.50;;;;;;5033468;28;20481;-81
2023/06/05 05:59:15;;;;;;;1.50;0.90;;;17.70;93.10;;;;;;5046489;28;21023;-80
2023/06/05 06:01:42;;;;;;;1.43;0.90;;;17.80;92.30;;;;;;5030662;28;20534;-80
2023/06/05 06:04:13;;;;;;;1.50;1.00;;;18.00;92.70;;;;;;5043429;28;20623;-80
2023/06/05 06:06:40;;;;;;;1.40;0.90;;;18.00;91.70;;;;;;5030930;28;20484;-79
2023/06/05 06:09:08;;;;;;;1.47;0.90;;;18.10;92.00;;;;;;5043030;28;20483;-80
2023/06/05 06:11:37;;;;;;;1.43;0.90;;;18.30;91.30;;;;;;5034065;28;21051;-79
2023/06/05 06:14:06;;;;;;;1.67;1.00;;;18.50;91.20;;;;;;5048702;28;21026;-77
2023/06/05 06:16:33;;;;;;;1.43;0.90;;;18.60;90.80;;;;;;5019538;28;20480;-79
2023/06/05 06:19:00;;;;;;;1.40;0.90;;;18.70;89.70;;;;;;5040612;28;20514;-79
2023/06/05 06:21:28;;;;;;;1.50;0.90;;;18.70;90.20;;;;;;5028513;28;20470;-79
2023/06/05 06:23:55;;;;;;;1.43;0.90;;;18.90;89.70;;;;;;5044621;28;21137;-78
2023/06/05 06:26:22;;;;;;;1.47;0.90;;;19.10;89.30;;;;;;5029085;28;20495;-78
2023/06/05 06:28:49;;;;;;;1.43;0.90;;;19.20;88.50;;;;;;5048483;28;20522;-78
2023/06/05 06:31:17;;;;;;;1.50;0.90;;;19.40;88.30;;;;;;5028456;28;20496;-77
2023/06/05 06:33:45;;;;;;;1.50;0.90;;;19.60;87.30;;;;;;5046421;28;20498;-78
2023/06/05 06:36:12;;;;;;;1.47;0.90;;;19.70;87.40;;;;;;5030226;28;20483;-77
2023/06/05 06:38:39;;;;;;;1.50;0.90;;;19.90;86.80;;;;;;5044949;28;20518;-75
2023/06/05 06:41:08;;;;;;;1.40;0.90;;;19.90;86.80;;;;;;5029236;28;20466;-78
2023/06/05 06:43:35;;;;;;;1.50;0.90;;;19.90;86.60;;;;;;5042322;28;20541;-78
2023/06/05 06:46:05;;;;;;;1.47;0.90;;;20.00;86.40;;;;;;5022713;28;20462;-79
2023/06/05 06:48:34;;;;;;;1.47;0.90;;;20.10;86.10;;;;;;5035449;28;20859;-78
2023/06/05 06:51:02;;;;;;;1.47;0.90;;;20.30;85.80;;;;;;5028938;28;20462;-82
2023/06/05 06:53:29;;;;;;;1.50;0.90;;;20.60;84.60;;;;;;5037697;28;20489;-79
2023/06/05 06:55:57;;;;;;;1.47;0.90;;;20.60;83.90;;;;;;5024292;28;20490;-81
2023/06/05 06:58:24;;;;;;;1.47;0.87;;;20.80;83.80;;;;;;5051716;28;20570;-80
2023/06/05 07:00:51;;;;;;;1.47;0.90;;;20.90;82.90;;;;;;5024575;28;20467;-79
2023/06/05 07:03:18;;;;;;;1.43;0.90;;;21.10;83.00;;;;;;5036749;28;20590;-81
2023/06/05 07:05:46;;;;;;;1.47;0.90;;;21.20;82.10;;;;;;5035846;28;20610;-79
2023/06/05 07:08:13;;;;;;;1.50;0.90;;;21.30;82.20;;;;;;5023224;28;20486;-82
2023/06/05 07:10:42;;;;;;;1.43;0.90;;;21.50;81.20;;;;;;5032138;28;20486;-79
2023/06/05 07:13:09;;;;;;;1.50;0.90;;;21.80;81.30;;;;;;5038006;28;21072;-78
2023/06/05 07:15:36;;;;;;;1.50;0.90;;;21.90;81.10;;;;;;5040454;28;20464;-81
2023/06/05 07:18:03;;;;;;;1.47;0.90;;;22.00;79.40;;;;;;5040665;28;20490;-76
2023/06/05 07:20:30;;;;;;;1.47;0.90;;;22.20;79.20;;;;;;5032717;28;20459;-82
2023/06/05 07:22:59;;;;;;;1.43;0.83;;;22.30;79.20;;;;;;5039824;28;20485;-80
2023/06/05 07:25:29;;;;;;;1.50;0.93;;;22.40;79.60;;;;;;5033889;28;20950;-79
2023/06/05 07:27:59;;;;;;;1.43;0.90;;;22.40;78.80;;;;;;5027418;28;20479;-78
2023/06/05 07:30:26;;;;;;;1.43;0.90;;;22.50;78.80;;;;;;5036366;28;20455;-80
2023/06/05 07:32:53;;;;;;;1.43;0.80;;;22.70;77.70;;;;;;5034136;28;20486;-80
2023/06/05 07:35:23;;;;;;;1.43;0.80;;;22.90;77.90;;;;;;5034909;28;20486;-76
2023/06/05 07:37:51;;;;;;;1.40;0.90;;;23.00;77.70;;;;;;5019639;28;22208;-77
2023/06/05 07:40:21;;;;;;;1.50;0.90;;;23.10;76.90;;;;;;5020159;28;21399;-78
2023/06/05 07:42:48;;;;;;;1.67;1.33;;;23.30;76.40;;;;;;5045122;28;20462;-80
2023/06/05 07:45:15;;;;;;;1.40;0.83;;;23.50;76.30;;;;;;5035525;28;20523;-81
2023/06/05 07:47:42;;;;;;;1.47;0.80;;;23.60;76.00;;;;;;5047383;28;20481;-80
2023/06/05 07:50:10;;;;;;;1.43;0.83;;;23.80;75.30;;;;;;5035820;28;20598;-79
2023/06/05 07:52:38;;;;;;;1.47;0.90;;;23.90;74.20;;;;;;5046928;28;20473;-82
2023/06/05 07:55:06;;;;;;;1.43;0.80;;;24.10;75.00;;;;;;5045395;28;20458;-79
2023/06/05 07:57:36;;;;;;;1.43;0.90;;;24.20;73.80;;;;;;5032246;28;20475;-77
2023/06/05 08:00:04;;;;;;;1.50;0.90;;;24.30;72.70;;;;;;5039566;28;21092;-78
2023/06/05 08:02:32;;;;;;;1.47;0.90;;;24.40;72.50;;;;;;5043508;28;20957;-77
2023/06/05 08:04:59;;;;;;;1.43;0.80;;;24.50;71.90;;;;;;5042699;28;20581;-80
2023/06/05 08:07:26;;;;;;;1.50;0.90;;;24.60;73.60;;;;;;5027505;28;20482;-78
2023/06/05 08:09:53;;;;;;;1.40;0.83;;;24.80;72.10;;;;;;5045962;28;20477;-81
2023/06/05 08:12:20;;;;;;;1.47;0.80;;;24.90;71.40;;;;;;5043678;28;20481;-79
2023/06/05 08:14:49;;;;;;;1.40;0.90;;;25.00;71.20;;;;;;5040541;28;20975;-79
2023/06/05 08:17:16;;;;;;;1.43;0.90;;;25.20;71.30;;;;;;5033370;28;20478;-79
2023/06/05 08:19:44;;;;;;;1.50;0.90;;;25.40;71.30;;;;;;5042541;28;21105;-80
2023/06/05 08:22:12;;;;;;;1.40;0.80;;;25.50;70.50;;;;;;5043334;28;20473;-77
2023/06/05 08:24:39;;;;;;;1.43;0.80;;;25.70;69.80;;;;;;5044785;28;20454;-80
2023/06/05 08:27:07;;;;;;;1.47;0.80;;;25.80;68.80;;;;;;5044054;28;20489;-81
2023/06/05 08:29:36;;;;;;;1.47;0.80;;;25.90;68.10;;;;;;5043748;28;20569;-82
2023/06/05 08:32:05;;;;;;;1.50;0.80;;;26.00;68.50;;;;;;5036730;28;20539;-80
2023/06/05 08:34:33;;;;;;;1.50;1.00;;;26.10;69.20;;;;;;5037613;28;20564;-77
2023/06/05 08:37:00;;;;;;;1.47;0.80;;;26.30;66.70;;;;;;5035402;28;20503;-78
2023/06/05 08:39:31;;;;;;;1.40;0.80;;;26.40;67.90;;;;;;5033323;28;20478;-79
2023/06/05 08:42:00;;;;;;;1.50;0.80;;;26.40;66.90;;;;;;5026845;28;20478;-75
2023/06/05 08:44:30;;;;;;;1.40;0.90;;;26.50;68.20;;;;;;5040886;28;20459;-78
2023/06/05 08:47:02;;;;;;;1.47;0.80;;;26.50;66.90;;;;;;5028940;28;20485;-79
2023/06/05 08:49:36;;;;;;;1.47;0.80;;;26.60;66.70;;;;;;5042040;28;20477;-80
2023/06/05 08:52:07;;;;;;;1.47;0.83;;;26.70;65.80;;;;;;5038571;28;20487;-82
2023/06/05 08:54:38;;;;;;;1.47;0.80;;;26.80;66.70;;;;;;5041865;28;20521;-78
2023/06/05 08:57:07;;;;;;;1.50;0.90;;;26.80;66.20;;;;;;5040784;28;20481;-79
2023/06/05 08:59:34;;;;;;;1.40;0.80;;;26.90;67.80;;;;;;5051799;28;20821;-77
2023/06/05 09:02:01;;;;;;;1.43;0.80;;;27.10;67.20;;;;;;5042907;28;20512;-76
2023/06/05 09:04:31;;;;;;;1.47;0.80;;;27.30;65.50;;;;;;5054595;28;20876;-82
2023/06/05 09:06:58;;;;;;;1.43;0.80;;;27.30;66.00;;;;;;5047692;28;20483;-82
2023/06/05 09:09:26;;;;;;;1.47;0.80;;;27.50;66.50;;;;;;5058555;28;20473;-78
2023/06/05 09:12:02;;;;;;;1.47;0.80;;;27.70;65.10;;;;;;5049600;28;20481;-83
2023/06/05 09:14:30;;;;;;;1.50;0.80;;;27.80;63.50;;;;;;5058271;28;20473;-82
2023/06/05 09:16:58;;;;;;;1.43;0.90;;;27.90;65.50;;;;;;5041221;22;20477;-80
2023/06/05 09:19:40;;;;;;;1.50;0.80;;;28.10;65.60;;;;;;5025143;28;20538;-82
2023/06/05 09:22:31;;;;;;;1.43;0.80;;;28.20;65.30;;;;;;5020188;28;20681;-82
2023/06/05 09:25:01;;;;;;;1.43;0.80;;;28.30;64.00;;;;;;5035252;28;20521;-81
2023/06/05 09:27:38;;;;;;;1.43;0.80;;;28.30;64.40;;;;;;5000559;28;20481;-81
2023/06/05 09:30:07;;;;;;;1.43;0.80;;;28.40;66.20;;;;;;5009096;28;20857;-82
2023/06/05 09:32:33;;;;;;;1.40;0.80;;;28.60;65.10;;;;;;4998344;28;20468;-79
2023/06/05 09:38:01;;;;;;;1.47;0.80;;;28.70;63.00;;;;;;4989013;28;20725;-78
2023/06/05 09:40:38;;;;;;;1.40;0.80;;;28.60;63.30;;;;;;5008394;28;20465;-80
2023/06/05 09:43:15;;;;;;;1.40;0.80;;;28.50;61.00;;;;;;4994562;28;20479;-80
2023/06/05 09:45:43;;;;;;;1.40;0.80;;;28.40;61.30;;;;;;5008897;28;20506;-79
2023/06/05 09:48:15;;;;;;;1.43;0.80;;;28.70;62.10;;;;;;4978443;28;20978;-80
2023/06/05 09:50:43;;;;;;;1.50;0.80;;;28.80;59.70;;;;;;5002640;28;20914;-79
2023/06/05 09:53:11;;;;;;;1.50;1.00;;;28.80;59.00;;;;;;4990725;28;20477;-79
2023/06/05 09:55:38;;;;;;;1.50;0.90;;;28.90;59.90;;;;;;5008276;28;20534;-80
2023/06/05 09:58:10;;;;;;;1.47;0.80;;;29.00;60.50;;;;;;4990277;28;20483;-78
2023/06/05 10:00:38;;;;;;;1.50;0.90;;;29.00;60.30;;;;;;5003630;28;20570;-80
2023/06/05 10:03:10;;;;;;;1.47;0.90;;;29.00;59.60;;;;;;5000606;28;21002;-80
2023/06/05 10:05:39;;;;;;;1.40;0.80;;;29.00;59.30;;;;;;5008891;28;21010;-79
2023/06/05 10:08:08;;;;;;;1.40;0.80;;;29.00;59.40;;;;;;4999716;28;20547;-79
2023/06/05 10:10:37;;;;;;;1.43;0.80;;;28.90;58.70;;;;;;5006930;28;20479;-78
2023/06/05 10:13:04;;;;;;;1.50;1.10;;;28.90;59.70;;;;;;4989632;28;21255;-78
2023/06/05 10:15:32;;;;;;;1.43;0.80;;;28.90;59.10;;;;;;5004196;28;20499;-78
2023/06/05 10:18:00;;;;;;;1.43;0.80;;;29.00;58.40;;;;;;4986650;28;20491;-77
2023/06/05 10:20:28;;;;;;;1.43;0.80;;;29.00;59.10;;;;;;4997750;28;20464;-77
2023/06/05 10:22:56;;;;;;;1.47;0.80;;;29.10;57.90;;;;;;5000778;28;20537;-78
2023/06/05 10:25:25;;;;;;;1.50;1.07;;;29.20;58.70;;;;;;5000138;28;21014;-77
2023/06/05 10:28:03;;;;;;;1.40;0.80;;;29.20;58.40;;;;;;4987445;28;20479;-77
2023/06/05 10:31:09;;;;;;;1.43;0.80;;;29.30;59.30;;;;;;5002240;28;20467;-78
2023/06/05 10:33:52;;;;;;;1.40;0.90;;;29.40;56.20;;;;;;4978370;28;20567;-79
2023/06/05 10:36:39;;;;;;;1.40;0.80;;;29.50;56.80;;;;;;4992645;28;20534;-80
2023/06/05 10:39:07;;;;;;;1.40;0.80;;;29.50;56.40;;;;;;5011717;28;20460;-78
2023/06/05 10:41:35;;;;;;;1.40;0.80;;;29.70;56.60;;;;;;4996599;28;20481;-79
2023/06/05 10:44:02;;;;;;;1.60;1.10;;;29.80;56.80;;;;;;4996548;28;20666;-79
2023/06/05 10:46:32;;;;;;;4.23;3.23;;;30.00;54.80;;;;;;4993473;28;21004;-80
2023/06/05 10:49:17;;;;;;;1.43;0.90;;;30.20;55.00;;;;;;5007725;28;20904;-78
2023/06/05 10:51:45;;;;;;;1.40;0.80;;;30.20;53.30;;;;;;4993496;28;20497;-79
2023/06/05 10:54:16;;;;;;;1.50;0.80;;;30.20;54.20;;;;;;5002755;28;20464;-80
2023/06/05 10:57:02;;;;;;;1.43;0.90;;;30.10;55.20;;;;;;4998894;28;20479;-82
2023/06/05 10:59:31;;;;;;;1.47;0.80;;;30.10;54.20;;;;;;5003952;28;20466;-79
2023/06/05 11:02:25;;;;;;;1.50;0.80;;;30.20;54.00;;;;;;5000458;28;20874;-78
2023/06/05 11:05:14;;;;;;;1.50;0.90;;;30.20;54.20;;;;;;4997676;28;20493;-78
2023/06/05 11:07:42;;;;;;;1.40;0.80;;;30.20;54.10;;;;;;5001005;28;20240;-79
2023/06/05 11:10:15;;;;;;;1.43;0.80;;;30.00;54.20;;;;;;5000496;28;20935;-79
2023/06/05 11:12:57;;;;;;;1.43;0.80;;;30.00;53.60;;;;;;5001412;28;20479;-78
2023/06/05 11:15:42;;;;;;;1.40;0.80;;;30.10;55.20;;;;;;4999695;28;20541;-77
2023/06/05 11:18:35;;;;;;;1.47;0.97;;;30.20;54.30;;;;;;4975620;28;20567;-77
2023/06/05 11:21:12;;;;;;;1.43;0.80;;;30.30;55.60;;;;;;5004779;28;20487;-78
2023/06/05 11:23:39;;;;;;;1.43;0.80;;;30.50;54.40;;;;;;5010629;28;20228;-76
2023/06/05 11:26:40;;;;;;;1.43;0.80;;;30.70;54.20;;;;;;4997778;28;20225;-78
2023/06/05 11:29:16;;;;;;;1.43;0.80;;;30.90;54.50;;;;;;5000921;28;20205;-76
2023/06/05 11:31:44;;;;;;;1.50;1.00;;;30.90;54.60;;;;;;4990887;28;20948;-77
2023/06/05 11:34:13;;;;;;;1.43;0.80;;;30.70;54.10;;;;;;5000945;28;20264;-77
2023/06/05 11:36:41;;;;;;;1.40;0.80;;;30.80;53.90;;;;;;4991865;28;20323;-77
2023/06/05 11:39:08;;;;;;;1.40;0.80;;;30.70;54.80;;;;;;4998657;28;20468;-76
2023/06/05 11:41:35;;;;;;;1.50;0.90;;;30.70;55.40;;;;;;4993015;28;20530;-78
2023/06/05 11:44:02;;;;;;;1.47;0.80;;;30.70;56.10;;;;;;4999624;28;20827;-77
2023/06/05 11:46:40;;;;;;;1.43;0.80;;;30.70;53.70;;;;;;4989697;28;20712;-78
2023/06/05 11:49:08;;;;;;;1.43;0.80;;;30.60;54.50;;;;;;4999185;28;20212;-78
2023/06/05 11:51:35;;;;;;;1.40;0.80;;;30.60;54.10;;;;;;4986743;28;20606;-77
2023/06/05 11:54:04;;;;;;;1.40;0.80;;;30.60;55.50;;;;;;4993513;28;20319;-77
2023/06/05 11:56:32;;;;;;;1.43;0.80;;;30.50;54.50;;;;;;4990982;28;20247;-78
2023/06/05 11:58:59;;;;;;;1.40;0.80;;;30.60;54.80;;;;;;5003934;28;20208;-76
2023/06/05 12:01:31;;;;;;;1.43;0.80;;;30.60;54.30;;;;;;4993634;28;20633;-77
2023/06/05 12:04:07;;;;;;;1.40;0.80;;;30.80;54.30;;;;;;4998969;28;20875;-79
2023/06/05 12:06:37;;;;;;;1.40;0.80;;;31.00;55.60;;;;;;4991913;28;20687;-77
2023/06/05 12:09:15;;;;;;;1.40;0.80;;;31.10;55.80;;;;;;4998763;28;20300;-78
2023/06/05 12:11:44;;;;;;;1.40;0.90;;;31.20;55.00;;;;;;4994189;28;20383;-78
2023/06/05 12:14:12;;;;;;;1.43;0.80;;;31.20;55.40;;;;;;4998513;28;20212;-77
2023/06/05 12:16:42;;;;;;;1.40;0.80;;;31.10;55.10;;;;;;4987377;28;20613;-78
2023/06/05 12:19:16;;;;;;;1.40;0.80;;;31.10;55.00;;;;;;4998269;28;20260;-76
2023/06/05 12:21:45;;;;;;;1.40;0.80;;;31.00;54.50;;;;;;4990942;28;20753;-78
2023/06/05 12:24:14;;;;;;;1.40;0.80;;;31.00;54.60;;;;;;5002115;28;20275;-79
2023/06/05 12:26:55;;;;;;;1.70;0.90;;;31.10;55.00;;;;;;4997937;28;20240;-79
2023/06/05 12:29:23;;;;;;;1.40;0.80;;;31.30;55.40;;;;;;5004806;28;20232;-78
2023/06/05 12:31:51;;;;;;;1.40;0.80;;;31.30;53.70;;;;;;4995756;28;20262;-78
2023/06/05 12:34:20;;;;;;;1.40;0.80;;;31.20;53.50;;;;;;4997966;28;20201;-78
2023/06/05 12:36:48;;;;;;;1.40;0.80;;;31.10;52.50;;;;;;4994857;28;20227;-79
2023/06/05 12:39:21;;;;;;;1.40;0.80;;;31.10;55.30;;;;;;5002446;28;20239;-82
2023/06/05 12:41:48;;;;;;;1.40;0.80;;;31.10;55.80;;;;;;4998072;28;20252;-80
2023/06/05 12:44:20;;;;;;;1.60;1.30;;;31.30;54.50;;;;;;5005447;28;20696;-83
2023/06/05 12:46:47;;;;;;;1.40;0.80;;;31.30;54.60;;;;;;4996354;28;20312;-81
2023/06/05 12:49:13;;;;;;;1.40;0.80;;;31.40;55.00;;;;;;5007363;28;20209;-80
2023/06/05 12:51:42;;;;;;;1.40;0.80;;;31.50;53.50;;;;;;4998409;28;20315;-80
2023/06/05 12:54:08;;;;;;;1.43;0.90;;;31.50;53.70;;;;;;5003114;28;20285;-81
2023/06/05 12:56:36;;;;;;;1.40;0.80;;;31.40;55.00;;;;;;5004296;28;20232;-80
2023/06/05 12:59:03;;;;;;;1.40;0.80;;;31.40;54.10;;;;;;4997816;28;20209;-78
2023/06/05 13:01:29;;;;;;;1.40;0.80;;;31.50;53.30;;;;;;4999390;28;20232;-78